createdAt,value
2017-10-07T00:01:07.758Z,3.30
2017-10-07T00:03:35.626Z,3.12
2017-10-07T00:06:03.493Z,3.40
2017-10-07T00:08:31.360Z,3.22
2017-10-07T00:10:59.227Z,3.12
2017-10-07T00:13:27.096Z,3.33
2017-10-07T00:15:54.973Z,3.20
2017-10-07T00:18:22.833Z,3.20
2017-10-07T00:20:50.702Z,3.20
2017-10-07T00:23:18.569Z,3.85
2017-10-07T00:25:46.435Z,3.20
2017-10-07T00:28:14.306Z,3.10
2017-10-07T00:30:42.273Z,3.47
2017-10-07T00:33:10.146Z,3.37
2017-10-07T00:35:38.004Z,4.20
2017-10-07T00:38:05.874Z,3.42
2017-10-07T00:40:33.738Z,2.95
2017-10-07T00:43:01.605Z,3.47
2017-10-07T00:45:29.473Z,3.53
2017-10-07T00:47:57.443Z,4.07
2017-10-07T00:50:25.309Z,3.10
2017-10-07T00:52:53.177Z,3.30
2017-10-07T00:55:21.044Z,3.70
2017-10-07T00:57:49.013Z,3.92
2017-10-07T01:00:16.881Z,3.40
2017-10-07T01:02:44.748Z,3.22
2017-10-07T01:05:12.615Z,3.30
2017-10-07T01:07:40.484Z,3.55
2017-10-07T01:10:08.350Z,3.20
2017-10-07T01:12:36.217Z,3.40
2017-10-07T01:15:04.087Z,3.30
2017-10-07T01:17:32.054Z,3.33
2017-10-07T01:20:00.869Z,3.20
2017-10-07T01:22:28.813Z,3.00
2017-10-07T01:24:56.783Z,3.67
2017-10-07T01:27:24.650Z,3.45
2017-10-07T01:29:52.517Z,3.15
2017-10-07T01:32:21.204Z,3.55
2017-10-07T01:34:49.071Z,4.60
2017-10-07T01:37:16.940Z,3.47
2017-10-07T01:39:44.806Z,3.00
2017-10-07T01:42:12.673Z,3.40
2017-10-07T01:44:40.540Z,3.25
2017-10-07T01:47:08.408Z,3.70
2017-10-07T01:49:36.276Z,3.20
2017-10-07T01:52:04.143Z,2.90
2017-10-07T01:54:32.010Z,3.33
2017-10-07T01:56:59.806Z,3.45
2017-10-07T01:59:28.462Z,3.50
2017-10-07T02:01:56.328Z,2.97
2017-10-07T02:04:24.130Z,3.62
2017-10-07T02:06:52.780Z,3.22
2017-10-07T02:09:20.647Z,3.47
2017-10-07T02:11:48.515Z,3.83
2017-10-07T02:14:16.382Z,2.67
2017-10-07T02:16:44.250Z,2.92
2017-10-07T02:19:12.127Z,2.62
2017-10-07T02:21:39.984Z,2.60
2017-10-07T02:24:07.855Z,2.87
2017-10-07T02:26:35.719Z,2.97
2017-10-07T02:29:03.585Z,2.75
2017-10-07T02:31:31.453Z,3.65
2017-10-07T02:33:59.320Z,3.37
2017-10-07T02:36:27.187Z,2.72
2017-10-07T02:38:55.056Z,3.25
2017-10-07T02:41:22.922Z,2.83
2017-10-07T02:43:50.793Z,3.10
2017-10-07T02:46:18.657Z,2.45
2017-10-07T02:48:46.528Z,2.42
2017-10-07T02:51:14.388Z,3.42
2017-10-07T02:53:42.258Z,3.40
2017-10-07T02:56:10.127Z,2.70
2017-10-07T02:58:37.993Z,3.17
2017-10-07T03:01:05.860Z,2.92
2017-10-07T03:03:33.727Z,2.50
2017-10-07T03:06:01.601Z,2.35
2017-10-07T03:08:29.463Z,3.28
2017-10-07T03:10:57.329Z,2.90
2017-10-07T03:13:25.198Z,3.37
2017-10-07T03:15:53.065Z,2.90
2017-10-07T03:18:20.932Z,2.90
2017-10-07T03:20:48.804Z,2.90
2017-10-07T03:23:16.671Z,2.75
2017-10-07T03:25:44.538Z,2.62
2017-10-07T03:28:12.407Z,2.80
2017-10-07T03:30:40.302Z,3.17
2017-10-07T03:33:08.961Z,2.60
2017-10-07T03:35:36.826Z,2.60
2017-10-07T03:38:04.692Z,2.97
2017-10-07T03:40:32.558Z,3.60
2017-10-07T03:43:00.425Z,2.40
2017-10-07T03:45:28.291Z,2.50
2017-10-07T03:47:56.159Z,3.30
2017-10-07T03:50:24.026Z,2.55
2017-10-07T03:52:51.895Z,3.47
2017-10-07T03:55:19.762Z,2.75
2017-10-07T03:57:47.628Z,2.78
2017-10-07T04:00:15.501Z,2.45
2017-10-07T04:02:43.362Z,3.58
2017-10-07T04:05:11.229Z,2.60
2017-10-07T04:07:39.098Z,2.40
2017-10-07T04:10:06.964Z,2.65
2017-10-07T04:12:34.833Z,2.53
2017-10-07T04:15:02.700Z,2.60
2017-10-07T04:17:31.386Z,2.47
2017-10-07T04:19:59.253Z,2.50
2017-10-07T04:22:27.121Z,3.17
2017-10-07T04:24:54.988Z,2.20
2017-10-07T04:27:22.855Z,2.60
2017-10-07T04:29:50.722Z,2.35
2017-10-07T04:32:18.590Z,3.62
2017-10-07T04:34:46.457Z,2.58
2017-10-07T04:37:14.324Z,2.87
2017-10-07T04:39:42.192Z,3.83
2017-10-07T04:42:10.059Z,3.10
2017-10-07T04:44:37.926Z,2.90
2017-10-07T04:47:05.794Z,3.10
2017-10-07T04:49:33.661Z,3.08
2017-10-07T04:52:01.534Z,2.80
2017-10-07T04:54:29.395Z,3.33
2017-10-07T04:56:57.262Z,2.65
2017-10-07T04:59:25.132Z,2.80
2017-10-07T05:01:52.997Z,3.40
2017-10-07T05:04:21.173Z,2.80
2017-10-07T05:06:49.040Z,2.50
2017-10-07T05:09:17.014Z,2.97
2017-10-07T05:11:44.876Z,3.05
2017-10-07T05:14:12.745Z,2.70
2017-10-07T05:16:41.127Z,3.28
2017-10-07T05:19:08.990Z,2.55
2017-10-07T05:21:36.857Z,3.10
2017-10-07T05:24:04.725Z,3.15
2017-10-07T05:26:32.592Z,2.75
2017-10-07T05:29:00.460Z,2.97
2017-10-07T05:31:28.327Z,2.85
2017-10-07T05:33:56.194Z,2.80
2017-10-07T05:36:24.164Z,3.37
2017-10-07T05:38:52.031Z,3.55
2017-10-07T05:41:19.899Z,3.83
2017-10-07T05:43:47.766Z,3.92
2017-10-07T05:46:15.634Z,3.22
2017-10-07T05:48:43.500Z,3.00
2017-10-07T05:51:11.371Z,3.30
2017-10-07T05:53:39.235Z,3.10
2017-10-07T05:56:07.102Z,3.28
2017-10-07T05:58:34.970Z,4.20
2017-10-07T06:01:02.838Z,3.30
2017-10-07T06:03:30.705Z,3.30
2017-10-07T06:05:58.674Z,3.60
2017-10-07T06:08:26.542Z,5.22
2017-10-07T06:10:54.408Z,3.67
2017-10-07T06:13:22.276Z,3.53
2017-10-07T06:15:50.143Z,3.25
2017-10-07T06:18:18.011Z,3.60
2017-10-07T06:20:45.882Z,2.83
2017-10-07T06:23:13.839Z,3.30
2017-10-07T06:25:41.721Z,3.20
2017-10-07T06:28:09.688Z,3.78
2017-10-07T06:30:37.585Z,3.45
2017-10-07T06:33:06.243Z,2.70
2017-10-07T06:35:34.109Z,4.05
2017-10-07T06:38:01.975Z,3.33
2017-10-07T06:40:29.841Z,4.03
2017-10-07T06:42:57.708Z,3.00
2017-10-07T06:45:25.575Z,3.90
2017-10-07T06:47:53.442Z,3.22
2017-10-07T06:50:21.310Z,3.45
2017-10-07T06:52:49.177Z,3.45
2017-10-07T06:55:17.146Z,3.35
2017-10-07T06:57:45.017Z,4.12
2017-10-07T07:00:12.881Z,3.50
2017-10-07T07:02:40.749Z,4.22
2017-10-07T07:05:08.615Z,3.72
2017-10-07T07:07:36.483Z,4.55
2017-10-07T07:10:04.350Z,3.70
2017-10-07T07:12:32.217Z,4.25
2017-10-07T07:15:00.084Z,3.40
2017-10-07T07:17:27.952Z,3.40
2017-10-07T07:19:55.823Z,4.18
2017-10-07T07:22:23.686Z,3.42
2017-10-07T07:24:51.657Z,3.53
2017-10-07T07:27:19.524Z,3.85
2017-10-07T07:29:47.391Z,4.18
2017-10-07T07:32:15.259Z,3.50
2017-10-07T07:34:43.125Z,3.95
2017-10-07T07:37:10.993Z,4.75
2017-10-07T07:39:38.861Z,4.68
2017-10-07T07:42:06.728Z,4.40
2017-10-07T07:44:34.596Z,4.78
2017-10-07T07:47:02.463Z,5.07
2017-10-07T07:49:30.333Z,4.90
2017-10-07T07:51:58.197Z,4.78
2017-10-07T07:54:26.064Z,4.50
2017-10-07T07:56:53.932Z,4.32
2017-10-07T07:59:21.799Z,4.70
2017-10-07T08:01:49.597Z,4.25
2017-10-07T08:04:18.250Z,4.03
2017-10-07T08:06:46.118Z,4.95
2017-10-07T08:09:13.991Z,4.00
2017-10-07T08:11:41.852Z,3.67
2017-10-07T08:14:09.719Z,4.90
2017-10-07T08:16:37.588Z,4.53
2017-10-07T08:19:05.454Z,4.10
2017-10-07T08:21:33.322Z,4.65
2017-10-07T08:24:01.190Z,4.75
2017-10-07T08:26:29.056Z,3.97
2017-10-07T08:28:56.924Z,4.32
2017-10-07T08:31:24.791Z,4.05
2017-10-07T08:33:52.660Z,3.90
2017-10-07T08:36:20.628Z,4.60
2017-10-07T08:38:48.496Z,4.40
2017-10-07T08:41:16.363Z,3.72
2017-10-07T08:43:44.230Z,5.25
2017-10-07T08:46:12.097Z,4.60
2017-10-07T08:48:40.190Z,4.25
2017-10-07T08:51:08.037Z,5.37
2017-10-07T08:53:35.904Z,5.75
2017-10-07T08:56:03.976Z,6.03
2017-10-07T08:58:31.844Z,6.40
2017-10-07T09:00:59.710Z,5.40
2017-10-07T09:03:27.578Z,5.35
2017-10-07T09:05:55.446Z,5.22
2017-10-07T09:08:23.314Z,5.80
2017-10-07T09:10:51.189Z,6.37
2017-10-07T09:13:19.047Z,5.50
2017-10-07T09:15:46.915Z,6.40
2017-10-07T09:18:14.782Z,6.43
2017-10-07T09:20:42.753Z,6.55
2017-10-07T09:23:10.518Z,5.50
2017-10-07T09:25:38.286Z,6.40
2017-10-07T09:28:06.078Z,6.10
2017-10-07T09:30:33.918Z,6.05
2017-10-07T09:33:01.783Z,6.87
2017-10-07T09:35:29.654Z,5.97
2017-10-07T09:37:57.520Z,6.15
2017-10-07T09:40:25.390Z,5.45
2017-10-07T09:42:53.254Z,5.50
2017-10-07T09:45:21.427Z,6.32
2017-10-07T09:47:49.294Z,5.20
2017-10-07T09:50:17.160Z,6.05
2017-10-07T09:52:45.026Z,5.95
2017-10-07T09:55:12.823Z,6.00
2017-10-07T09:57:41.478Z,6.50
2017-10-07T10:00:09.348Z,6.12
2017-10-07T10:02:37.213Z,6.87
2017-10-07T10:05:05.081Z,5.68
2017-10-07T10:07:32.948Z,6.15
2017-10-07T10:10:00.815Z,5.62
2017-10-07T10:12:28.683Z,5.97
2017-10-07T10:14:56.550Z,6.37
2017-10-07T10:17:24.418Z,5.55
2017-10-07T10:19:52.287Z,6.28
2017-10-07T10:22:20.151Z,5.75
2017-10-07T10:24:48.122Z,6.87
2017-10-07T10:27:15.993Z,6.70
2017-10-07T10:29:43.857Z,5.50
2017-10-07T10:32:11.724Z,7.03
2017-10-07T10:34:39.591Z,6.57
2017-10-07T10:37:07.458Z,6.12
2017-10-07T10:39:35.325Z,5.80
2017-10-07T10:42:03.194Z,6.37
2017-10-07T10:44:31.060Z,5.85
2017-10-07T10:46:58.927Z,6.68
2017-10-07T10:49:26.794Z,5.75
2017-10-07T10:51:54.662Z,5.43
2017-10-07T10:54:22.529Z,5.43
2017-10-07T10:56:50.396Z,5.43
2017-10-07T10:59:18.265Z,6.45
2017-10-07T11:01:46.132Z,5.45
2017-10-07T11:04:13.999Z,5.43
2017-10-07T11:06:41.869Z,5.40
2017-10-07T11:09:09.666Z,5.30
2017-10-07T11:11:38.215Z,5.68
2017-10-07T11:14:06.081Z,5.95
2017-10-07T11:16:33.948Z,5.85
2017-10-07T11:19:01.918Z,4.10
2017-10-07T11:21:29.714Z,4.10
2017-10-07T11:23:57.551Z,3.80
2017-10-07T11:26:25.419Z,4.22
2017-10-07T11:28:53.286Z,4.30
2017-10-07T11:31:21.153Z,3.70
2017-10-07T11:33:49.020Z,4.00
2017-10-07T11:36:16.888Z,4.05
2017-10-07T11:38:46.113Z,3.85
2017-10-07T11:41:13.956Z,4.10
2017-10-07T11:43:42.743Z,3.95
2017-10-07T11:46:10.609Z,4.43
2017-10-07T11:48:38.477Z,5.43
2017-10-07T11:51:06.344Z,4.93
2017-10-07T11:53:34.211Z,5.40
2017-10-07T11:56:02.080Z,4.40
2017-10-07T11:58:29.947Z,4.20
2017-10-07T12:00:57.821Z,3.65
2017-10-07T12:03:25.681Z,4.25
2017-10-07T12:05:53.588Z,3.60
2017-10-07T12:08:22.234Z,3.95
2017-10-07T12:10:50.102Z,3.53
2017-10-07T12:13:17.969Z,3.25
2017-10-07T12:15:45.837Z,3.80
2017-10-07T12:18:13.705Z,3.47
2017-10-07T12:20:41.673Z,2.90
2017-10-07T12:23:09.541Z,4.37
2017-10-07T12:25:37.408Z,4.32
2017-10-07T12:28:05.231Z,4.12
2017-10-07T12:30:33.041Z,3.85
2017-10-07T12:33:00.907Z,3.62
2017-10-07T12:35:28.775Z,3.85
2017-10-07T12:37:56.643Z,3.10
2017-10-07T12:40:24.515Z,3.25
2017-10-07T12:42:52.383Z,4.62
2017-10-07T12:45:20.244Z,3.60
2017-10-07T12:47:48.113Z,4.40
2017-10-07T12:50:15.984Z,4.87
2017-10-07T12:52:43.851Z,4.95
2017-10-07T12:55:11.820Z,5.45
2017-10-07T12:57:39.686Z,5.50
2017-10-07T13:00:07.552Z,4.97
2017-10-07T13:02:35.417Z,4.43
2017-10-07T13:05:03.286Z,3.90
2017-10-07T13:07:31.152Z,5.22
2017-10-07T13:09:59.020Z,5.37
2017-10-07T13:12:26.886Z,5.22
2017-10-07T13:14:54.755Z,4.37
2017-10-07T13:17:22.551Z,4.68
2017-10-07T13:19:52.756Z,5.53
2017-10-07T13:22:20.609Z,4.20
2017-10-07T13:24:48.477Z,4.70
2017-10-07T13:27:18.365Z,4.30
2017-10-07T13:29:48.722Z,4.10
2017-10-07T13:32:19.019Z,4.45
2017-10-07T13:34:53.301Z,4.05
2017-10-07T13:37:31.437Z,4.05
2017-10-07T13:40:12.517Z,4.57
2017-10-07T13:42:41.231Z,3.92
2017-10-07T13:45:09.098Z,4.00
2017-10-07T13:47:39.633Z,4.10
2017-10-07T13:50:07.496Z,3.60
2017-10-07T13:52:35.363Z,3.37
2017-10-07T13:55:03.231Z,4.40
2017-10-07T13:57:31.711Z,4.10
2017-10-07T13:59:59.579Z,3.72
2017-10-07T14:02:27.451Z,3.90
2017-10-07T14:04:55.314Z,3.33
2017-10-07T14:07:23.490Z,3.70
2017-10-07T14:09:51.356Z,3.70
2017-10-07T14:12:19.150Z,3.42
2017-10-07T14:14:47.091Z,3.28
2017-10-07T14:17:14.958Z,3.15
2017-10-07T14:19:42.927Z,3.35
2017-10-07T14:22:10.897Z,2.62
2017-10-07T14:24:38.764Z,3.20
2017-10-07T14:27:06.938Z,3.03
2017-10-07T14:29:34.806Z,4.05
2017-10-07T14:32:02.674Z,3.00
2017-10-07T14:34:30.541Z,3.50
2017-10-07T14:36:58.408Z,2.70
2017-10-07T14:39:26.275Z,3.33
2017-10-07T14:41:54.143Z,2.65
2017-10-07T14:44:22.114Z,2.90
2017-10-07T14:46:49.979Z,3.17
2017-10-07T14:49:17.849Z,2.80
2017-10-07T14:54:19.521Z,2.53
2017-10-07T14:56:47.389Z,3.25
2017-10-07T14:59:15.255Z,2.67
2017-10-07T15:01:43.126Z,3.10
2017-10-07T15:04:10.990Z,2.50
2017-10-07T15:06:38.858Z,2.20
2017-10-07T15:09:06.726Z,2.90
2017-10-07T15:11:34.594Z,2.50
2017-10-07T15:14:02.460Z,2.62
2017-10-07T15:16:30.327Z,2.30
2017-10-07T15:18:58.118Z,2.50
2017-10-07T15:21:25.959Z,2.72
2017-10-07T15:23:53.826Z,2.80
2017-10-07T15:26:21.693Z,2.22
2017-10-07T15:28:49.561Z,2.78
2017-10-07T15:31:17.429Z,2.40
2017-10-07T15:33:45.296Z,2.15
2017-10-07T15:36:13.266Z,2.20
2017-10-07T15:38:41.132Z,2.50
2017-10-07T15:41:09.001Z,3.10
2017-10-07T15:43:36.869Z,2.80
2017-10-07T15:46:04.976Z,2.62
2017-10-07T15:48:33.625Z,2.62
2017-10-07T15:51:01.493Z,3.00
2017-10-07T15:53:29.371Z,2.30
2017-10-07T15:55:57.438Z,2.42
2017-10-07T15:58:25.301Z,2.35
2017-10-07T16:00:53.172Z,2.20
2017-10-07T16:03:21.041Z,2.12
2017-10-07T16:05:49.213Z,3.22
2017-10-07T16:08:17.179Z,2.65
2017-10-07T16:10:45.151Z,2.80
2017-10-07T16:13:13.016Z,2.37
2017-10-07T16:15:42.381Z,2.05
2017-10-07T16:18:10.286Z,2.35
2017-10-07T16:20:38.154Z,2.62
2017-10-07T16:23:06.021Z,2.10
2017-10-07T16:25:33.889Z,3.00
2017-10-07T16:28:01.756Z,3.55
2017-10-07T16:30:29.623Z,2.58
2017-10-07T16:32:57.489Z,2.50
2017-10-07T16:35:25.358Z,2.55
2017-10-07T16:37:53.329Z,2.35
2017-10-07T16:40:22.116Z,2.35
2017-10-07T16:42:50.700Z,2.62
2017-10-07T16:45:18.567Z,2.60
2017-10-07T16:47:46.434Z,2.30
2017-10-07T16:50:14.310Z,2.50
2017-10-07T16:52:42.170Z,2.40
2017-10-07T16:55:10.037Z,2.40
2017-10-07T16:57:37.908Z,3.08
2017-10-07T17:00:05.772Z,2.70
2017-10-07T17:02:33.914Z,2.58
2017-10-07T17:05:02.633Z,4.35
2017-10-07T17:07:30.500Z,2.15
2017-10-07T17:09:58.367Z,2.53
2017-10-07T17:12:26.235Z,3.22
2017-10-07T17:14:54.102Z,2.65
2017-10-07T17:17:22.176Z,2.22
2017-10-07T17:19:50.043Z,1.90
2017-10-07T17:22:17.908Z,2.40
2017-10-07T17:24:45.776Z,2.20
2017-10-07T17:27:13.643Z,1.95
2017-10-07T17:29:41.510Z,1.92
2017-10-07T17:32:09.378Z,2.55
2017-10-07T17:34:37.245Z,1.90
2017-10-07T17:37:05.113Z,2.05
2017-10-07T17:39:32.979Z,1.70
2017-10-07T17:42:00.848Z,2.03
2017-10-07T17:44:28.642Z,2.58
2017-10-07T17:46:56.479Z,2.22
2017-10-07T17:49:24.346Z,2.40
2017-10-07T17:51:52.316Z,2.25
2017-10-07T17:54:20.184Z,2.10
2017-10-07T17:56:48.051Z,2.53
2017-10-07T17:59:15.918Z,2.00
2017-10-07T18:01:43.785Z,1.83
2017-10-07T18:04:11.654Z,2.30
2017-10-07T18:06:39.520Z,1.90
2017-10-07T18:09:07.387Z,1.92
2017-10-07T18:11:35.256Z,1.90
2017-10-07T18:14:03.122Z,2.28
2017-10-07T18:16:30.990Z,1.85
2017-10-07T18:18:58.856Z,2.33
2017-10-07T18:21:26.827Z,1.92
2017-10-07T18:23:54.694Z,1.95
2017-10-07T18:26:22.561Z,1.60
2017-10-07T18:28:50.428Z,1.95
2017-10-07T18:31:18.296Z,1.95
2017-10-07T18:33:46.163Z,1.80
2017-10-07T18:36:14.031Z,1.85
2017-10-07T18:38:41.897Z,2.03
2017-10-07T18:41:09.765Z,3.10
2017-10-07T18:43:37.633Z,2.15
2017-10-07T18:46:05.499Z,2.03
2017-10-07T18:48:33.367Z,1.60
2017-10-07T18:51:01.234Z,2.22
2017-10-07T18:53:29.101Z,1.98
2017-10-07T18:55:57.072Z,2.17
2017-10-07T18:58:24.939Z,1.95
2017-10-07T19:00:52.805Z,1.95
2017-10-07T19:03:20.677Z,2.33
2017-10-07T19:05:48.543Z,2.80
2017-10-07T19:08:16.408Z,3.10
2017-10-07T19:10:44.282Z,2.62
2017-10-07T19:13:12.248Z,2.37
2017-10-07T19:15:40.115Z,2.58
2017-10-07T19:18:07.983Z,2.20
2017-10-07T19:20:35.849Z,1.92
2017-10-07T19:23:03.715Z,2.15
2017-10-07T19:25:31.581Z,2.40
2017-10-07T19:27:59.449Z,1.87
2017-10-07T19:30:27.316Z,1.80
2017-10-07T19:32:55.182Z,1.98
2017-10-07T19:35:23.051Z,2.00
2017-10-07T19:37:50.917Z,2.15
2017-10-07T19:40:18.786Z,2.10
2017-10-07T19:42:46.653Z,2.37
2017-10-07T19:45:14.520Z,2.20
2017-10-07T19:47:42.391Z,2.30
2017-10-07T19:50:10.256Z,1.77
2017-10-07T19:52:38.122Z,2.12
2017-10-07T19:55:06.018Z,2.10
2017-10-07T19:57:33.856Z,2.00
2017-10-07T20:00:01.724Z,1.60
2017-10-07T20:02:29.591Z,1.95
2017-10-07T20:04:57.464Z,2.00
2017-10-07T20:07:25.327Z,2.30
2017-10-07T20:09:53.193Z,1.90
2017-10-07T20:12:21.059Z,2.20
2017-10-07T20:14:48.931Z,2.37
2017-10-07T20:17:16.795Z,2.10
2017-10-07T20:19:45.482Z,1.85
2017-10-07T20:22:13.348Z,1.80
2017-10-07T20:24:41.216Z,1.90
2017-10-07T20:27:09.083Z,2.00
2017-10-07T20:29:36.954Z,2.03
2017-10-07T20:32:04.819Z,2.10
2017-10-07T20:34:32.685Z,1.73
2017-10-07T20:37:00.558Z,2.30
2017-10-07T20:39:28.420Z,3.28
2017-10-07T20:41:56.287Z,1.83
2017-10-07T20:44:24.154Z,2.35
2017-10-07T20:46:52.022Z,2.60
2017-10-07T20:49:19.889Z,2.08
2017-10-07T20:51:47.757Z,2.15
2017-10-07T20:54:15.623Z,2.03
2017-10-07T20:56:43.491Z,2.15
2017-10-07T20:59:11.359Z,2.40
2017-10-07T21:01:39.229Z,2.00
2017-10-07T21:04:07.094Z,2.50
2017-10-07T21:06:34.858Z,2.80
2017-10-07T21:09:02.725Z,2.10
2017-10-07T21:11:30.593Z,2.35
2017-10-07T21:13:58.460Z,2.47
2017-10-07T21:16:26.329Z,2.25
2017-10-07T21:18:54.194Z,2.35
2017-10-07T21:21:22.063Z,2.45
2017-10-07T21:23:49.929Z,3.00
2017-10-07T21:26:17.797Z,2.35
2017-10-07T21:28:45.665Z,2.30
2017-10-07T21:31:13.531Z,2.10
2017-10-07T21:33:41.399Z,3.25
2017-10-07T21:36:09.265Z,2.33
2017-10-07T21:38:37.133Z,2.10
2017-10-07T21:41:05.000Z,2.03
2017-10-07T21:43:32.970Z,2.40
2017-10-07T21:46:00.837Z,2.87
2017-10-07T21:48:28.704Z,3.47
2017-10-07T21:50:56.572Z,2.65
2017-10-07T21:53:24.438Z,2.50
2017-10-07T21:55:52.306Z,2.50
2017-10-07T21:58:20.174Z,2.10
2017-10-07T22:00:48.041Z,2.62
2017-10-07T22:03:15.943Z,2.42
2017-10-07T22:05:44.595Z,2.25
2017-10-07T22:08:12.462Z,2.70
2017-10-07T22:10:40.337Z,2.12
2017-10-07T22:13:08.203Z,2.03
2017-10-07T22:15:36.067Z,2.72
2017-10-07T22:18:03.932Z,2.40
2017-10-07T22:20:31.802Z,2.40
2017-10-07T22:22:59.671Z,2.40
2017-10-07T22:25:27.535Z,2.20
2017-10-07T22:27:55.412Z,2.62
2017-10-07T22:30:23.268Z,2.47
2017-10-07T22:32:51.135Z,2.67
2017-10-07T22:35:19.002Z,2.67
2017-10-07T22:37:53.601Z,3.00
2017-10-07T22:40:25.351Z,2.55
2017-10-07T22:42:56.377Z,2.15
2017-10-07T22:45:25.961Z,2.22
2017-10-07T22:47:54.929Z,2.40
2017-10-07T22:50:22.796Z,2.75
2017-10-07T22:52:50.663Z,2.25
2017-10-07T22:55:18.530Z,2.00
2017-10-07T22:57:46.397Z,2.12
2017-10-07T23:00:14.265Z,2.05
2017-10-07T23:02:42.132Z,1.80
2017-10-07T23:05:10.001Z,2.00
2017-10-07T23:07:37.867Z,2.20
2017-10-07T23:10:05.734Z,2.30
2017-10-07T23:12:33.601Z,2.30
2017-10-07T23:15:01.470Z,1.75
2017-10-07T23:17:29.339Z,2.30
2017-10-07T23:19:57.204Z,2.20
2017-10-07T23:22:32.956Z,2.37
2017-10-07T23:25:00.823Z,2.15
2017-10-07T23:27:28.691Z,2.05
2017-10-07T23:29:56.559Z,1.70
2017-10-07T23:32:24.425Z,1.83
2017-10-07T23:34:52.292Z,3.22
2017-10-07T23:37:20.160Z,1.75
2017-10-07T23:39:48.028Z,1.85
2017-10-07T23:42:15.896Z,1.60
2017-10-07T23:44:43.764Z,2.05
2017-10-07T23:47:11.554Z,1.70
2017-10-07T23:49:39.393Z,2.30
2017-10-07T23:52:07.261Z,1.58
2017-10-07T23:54:35.128Z,1.42
2017-10-07T23:57:02.995Z,1.60
2017-10-07T23:59:30.863Z,1.55
